Time;durP1;ratioP1;P1;durP2;ratioP2;P2;SDS_P1;SDS_P2;PMS_P1;PMS_P2;Temp;Humidity;BMP_temperature;BMP_pressure;BME280_temperature;BME280_humidity;BME280_pressure;Samples;Min_cycle;Max_cycle;Signal;HPM_P1;HPM_P2
2022/07/26 00:00:35;;;;;;;4.10;0.63;;;19.90;97.00;;;;;;5058770;28;20381;-81
2022/07/26 00:03:02;;;;;;;4.90;0.80;;;19.90;97.20;;;;;;5044508;28;20053;-80
2022/07/26 00:05:37;;;;;;;5.28;1.00;;;19.90;97.30;;;;;;5046908;28;20025;-80
2022/07/26 00:08:12;;;;;;;7.75;1.00;;;19.90;97.40;;;;;;5028405;28;20045;-80
2022/07/26 00:10:47;;;;;;;3.85;0.85;;;19.90;97.60;;;;;;5053192;28;20042;-80
2022/07/26 00:13:24;;;;;;;5.00;0.60;;;19.90;97.60;;;;;;5022207;28;20893;-81
2022/07/26 00:15:51;;;;;;;4.47;0.82;;;19.90;97.60;;;;;;5045650;28;20048;-81
2022/07/26 00:18:19;;;;;;;4.18;0.70;;;19.90;97.70;;;;;;5018006;28;20502;-81
2022/07/26 00:20:47;;;;;;;5.45;0.85;;;19.90;97.70;;;;;;5029984;28;20029;-80
2022/07/26 00:23:13;;;;;;;5.95;0.82;;;20.00;97.80;;;;;;5028683;28;20033;-80
2022/07/26 00:25:40;;;;;;;6.85;0.77;;;19.90;98.00;;;;;;5001709;28;20048;-80
2022/07/26 00:28:07;;;;;;;7.13;1.10;;;19.90;98.00;;;;;;5014822;28;20904;-80
2022/07/26 00:30:34;;;;;;;7.70;0.65;;;19.90;98.00;;;;;;5034286;28;20411;-80
2022/07/26 00:33:06;;;;;;;5.93;0.60;;;19.90;98.10;;;;;;5080091;28;20051;-80
2022/07/26 00:35:38;;;;;;;4.95;0.70;;;19.90;98.10;;;;;;5066738;28;20383;-81
2022/07/26 00:38:08;;;;;;;7.50;0.80;;;19.90;98.20;;;;;;5083964;28;20348;-78
2022/07/26 00:40:35;;;;;;;6.30;0.68;;;19.80;98.20;;;;;;5045672;28;20408;-80
2022/07/26 00:43:05;;;;;;;5.28;0.98;;;19.80;98.30;;;;;;5077958;28;20039;-80
2022/07/26 00:45:35;;;;;;;8.32;1.27;;;19.80;98.40;;;;;;5077792;28;21340;-80
2022/07/26 00:48:03;;;;;;;6.10;0.80;;;19.80;98.50;;;;;;5063035;28;20387;-80
2022/07/26 00:50:30;;;;;;;8.48;0.93;;;19.80;98.50;;;;;;5066997;28;21345;-80
2022/07/26 00:52:57;;;;;;;5.22;0.80;;;19.80;98.60;;;;;;5065267;28;20476;-80
2022/07/26 00:55:29;;;;;;;4.40;0.68;;;19.70;98.60;;;;;;5077354;28;20483;-80
2022/07/26 00:58:23;;;;;;;5.88;0.90;;;19.70;98.60;;;;;;5065031;28;20452;-80
2022/07/26 01:00:56;;;;;;;4.32;0.65;;;19.70;98.70;;;;;;5079305;28;20032;-80
2022/07/26 01:03:35;;;;;;;5.13;0.70;;;19.70;98.80;;;;;;5061130;28;20036;-80
2022/07/26 01:06:05;;;;;;;5.40;0.70;;;19.70;98.90;;;;;;5046580;28;20040;-80
2022/07/26 01:08:32;;;;;;;6.60;0.70;;;19.70;99.10;;;;;;5064847;28;20028;-80
2022/07/26 01:11:07;;;;;;;3.55;0.70;;;19.70;99.20;;;;;;5077698;28;20684;-80
2022/07/26 01:13:44;;;;;;;5.82;1.08;;;19.60;99.50;;;;;;5059554;28;20051;-80
2022/07/26 01:16:10;;;;;;;3.92;0.70;;;19.60;99.30;;;;;;5076713;28;20043;-80
2022/07/26 01:18:46;;;;;;;4.82;0.70;;;19.60;99.40;;;;;;5033636;28;20037;-81
2022/07/26 01:21:15;;;;;;;5.40;0.70;;;19.60;99.50;;;;;;5075787;28;20036;-80
2022/07/26 01:23:43;;;;;;;4.15;0.93;;;19.60;99.60;;;;;;5075616;28;20052;-80
2022/07/26 01:26:34;;;;;;;9.52;1.25;;;19.50;99.70;;;;;;5042224;28;20029;-80
2022/07/26 01:29:09;;;;;;;4.97;0.88;;;19.50;99.70;;;;;;5067632;28;20052;-80
2022/07/26 01:31:57;;;;;;;3.17;0.60;;;19.50;99.90;;;;;;5076529;28;20039;-80
2022/07/26 01:34:50;;;;;;;5.13;0.70;;;19.40;99.90;;;;;;5078335;28;20304;-80
2022/07/26 01:37:17;;;;;;;5.45;0.80;;;19.30;99.90;;;;;;5017334;28;20028;-80
2022/07/26 01:39:46;;;;;;;3.13;0.75;;;19.30;99.90;;;;;;5069492;28;20467;-80
2022/07/26 01:42:17;;;;;;;3.75;0.90;;;19.20;99.90;;;;;;5062164;28;20036;-80
2022/07/26 01:45:25;;;;;;;5.07;0.95;;;19.10;99.90;;;;;;5076513;28;20044;-80
2022/07/26 01:48:07;;;;;;;3.70;0.60;;;19.00;99.90;;;;;;5065645;28;20040;-80
2022/07/26 01:50:41;;;;;;;9.40;0.75;;;19.00;99.90;;;;;;5079567;28;20480;-80
2022/07/26 01:53:07;;;;;;;3.92;0.80;;;18.90;99.90;;;;;;5048450;28;20036;-79
2022/07/26 01:55:43;;;;;;;4.68;0.70;;;18.90;99.90;;;;;;5074576;28;20028;-80
2022/07/26 01:58:18;;;;;;;3.28;0.60;;;18.90;99.90;;;;;;5076920;28;20024;-80
2022/07/26 02:00:45;;;;;;;4.97;0.60;;;18.80;99.90;;;;;;5046655;28;20414;-80
2022/07/26 02:03:11;;;;;;;3.72;0.70;;;18.70;99.90;;;;;;5063122;28;20044;-80
2022/07/26 02:05:38;;;;;;;4.22;0.90;;;18.70;99.90;;;;;;5074977;28;20487;-80
2022/07/26 02:08:05;;;;;;;7.00;0.90;;;18.70;99.90;;;;;;5060640;28;20052;-80
2022/07/26 02:13:22;;;;;;;3.42;0.70;;;18.60;99.90;;;;;;5061983;28;20373;-80
2022/07/26 02:15:49;;;;;;;6.75;0.98;;;18.60;99.90;;;;;;5041953;28;20427;-80
2022/07/26 02:18:18;;;;;;;5.32;1.00;;;18.60;99.90;;;;;;5066699;28;20020;-80
2022/07/26 02:20:45;;;;;;;5.00;0.80;;;18.60;99.90;;;;;;5061865;28;20090;-80
2022/07/26 02:23:13;;;;;;;6.57;0.95;;;18.60;99.90;;;;;;5062373;28;20048;-79
2022/07/26 02:25:40;;;;;;;5.47;0.70;;;18.60;99.90;;;;;;5064630;28;20020;-80
2022/07/26 02:28:06;;;;;;;4.80;0.88;;;18.60;99.90;;;;;;5017947;28;20418;-80
2022/07/26 02:30:33;;;;;;;6.40;1.50;;;18.60;99.90;;;;;;5049263;28;20041;-80
2022/07/26 02:33:03;;;;;;;6.60;1.45;;;18.60;99.90;;;;;;5044598;28;20502;-81
2022/07/26 02:35:30;;;;;;;4.35;1.33;;;18.60;99.90;;;;;;5060411;28;20028;-80
2022/07/26 02:38:05;;;;;;;7.80;1.20;;;18.60;99.90;;;;;;5075871;28;20108;-81
2022/07/26 02:40:36;;;;;;;5.60;1.08;;;18.60;99.90;;;;;;5076464;28;20117;-81
2022/07/26 02:43:04;;;;;;;4.95;0.73;;;18.70;99.90;;;;;;5079022;28;20451;-80
2022/07/26 02:45:33;;;;;;;3.15;0.80;;;18.70;99.90;;;;;;5056405;28;20357;-80
2022/07/26 02:48:01;;;;;;;7.78;1.38;;;18.80;99.90;;;;;;5075572;28;20399;-80
2022/07/26 02:50:28;;;;;;;6.10;1.67;;;18.70;99.90;;;;;;5063341;28;20057;-80
2022/07/26 02:52:55;;;;;;;4.57;1.73;;;18.80;99.90;;;;;;5076225;28;20055;-82
2022/07/26 02:55:42;;;;;;;7.38;1.33;;;18.80;99.90;;;;;;5047588;28;20037;-81
2022/07/26 02:58:18;;;;;;;5.20;0.80;;;18.90;99.90;;;;;;5076743;28;20375;-82
2022/07/26 03:01:33;;;;;;;;;;;;;;;;;;;;;
2022/07/26 03:04:43;;;;;;;4.25;1.10;;;18.90;99.90;;;;;;5032015;28;20044;-82
2022/07/26 03:07:42;;;;;;;3.08;0.70;;;19.00;99.90;;;;;;5063908;28;20383;-81
2022/07/26 03:11:22;;;;;;;4.22;1.00;;;19.00;99.90;;;;;;5022690;28;20472;-82
2022/07/26 03:17:18;;;;;;;3.05;0.57;;;19.10;99.90;;;;;;5006603;28;19992;-79
2022/07/26 03:20:08;;;;;;;6.72;0.82;;;19.10;99.90;;;;;;5014761;28;20060;-80
2022/07/26 03:23:18;;;;;;;3.65;0.90;;;19.10;99.90;;;;;;4998038;28;20052;-81
2022/07/26 03:26:11;;;;;;;5.88;0.70;;;19.10;99.90;;;;;;4986311;28;20048;-80
2022/07/26 03:29:09;;;;;;;3.72;0.70;;;19.20;99.90;;;;;;4992222;28;20062;-80
2022/07/26 03:31:39;;;;;;;6.00;1.35;;;19.10;99.90;;;;;;4998256;28;20052;-80
2022/07/26 03:34:16;;;;;;;4.38;0.85;;;19.10;99.90;;;;;;4977958;28;20061;-80
2022/07/26 03:36:43;;;;;;;3.88;0.70;;;19.20;99.90;;;;;;5002130;28;20045;-80
2022/07/26 03:39:16;;;;;;;2.80;0.82;;;19.20;99.90;;;;;;5002339;28;20138;-80
2022/07/26 03:41:44;;;;;;;3.05;0.70;;;19.20;99.90;;;;;;4976472;28;20025;-80
2022/07/26 03:44:11;;;;;;;3.22;0.82;;;19.20;99.90;;;;;;4983274;28;22691;-80
2022/07/26 03:46:46;;;;;;;3.22;0.77;;;19.20;99.90;;;;;;5016744;28;20040;-83
2022/07/26 03:49:12;;;;;;;3.53;0.65;;;19.20;99.90;;;;;;5012753;28;20043;-82
2022/07/26 03:51:44;;;;;;;5.07;0.82;;;19.10;99.90;;;;;;5025040;28;20412;-82
2022/07/26 03:54:34;;;;;;;3.90;0.80;;;19.00;99.90;;;;;;5036260;28;20044;-82
2022/07/26 03:57:10;;;;;;;3.80;1.02;;;18.90;99.90;;;;;;5002332;28;20389;-81
2022/07/26 03:59:41;;;;;;;3.90;1.48;;;18.80;99.90;;;;;;5019678;28;20045;-82
2022/07/26 04:02:11;;;;;;;10.38;2.05;;;18.70;99.90;;;;;;5007691;28;20044;-81
2022/07/26 04:05:00;;;;;;;2.72;0.70;;;18.60;99.90;;;;;;5006616;28;20049;-81
2022/07/26 04:07:51;;;;;;;5.18;1.08;;;18.60;99.90;;;;;;5025842;28;20484;-81
2022/07/26 04:10:24;;;;;;;3.47;1.10;;;18.50;99.90;;;;;;5010788;28;20040;-82
2022/07/26 04:12:52;;;;;;;3.75;0.95;;;18.40;99.90;;;;;;5027107;28;20036;-81
2022/07/26 04:15:20;;;;;;;3.65;0.80;;;18.40;99.90;;;;;;5038946;28;20037;-80
2022/07/26 04:17:52;;;;;;;3.78;0.90;;;18.30;99.90;;;;;;5038632;28;20036;-80
2022/07/26 04:20:19;;;;;;;4.97;1.20;;;18.30;99.90;;;;;;5036478;28;20044;-81
2022/07/26 04:22:45;;;;;;;3.08;0.63;;;18.30;99.90;;;;;;5022664;28;20033;-80
2022/07/26 04:25:20;;;;;;;4.22;0.63;;;18.30;99.90;;;;;;5013121;28;20029;-81
2022/07/26 04:27:50;;;;;;;5.03;0.90;;;18.30;99.90;;;;;;5029111;28;20057;-80
2022/07/26 04:30:19;;;;;;;3.10;0.90;;;18.40;99.90;;;;;;5056196;28;20044;-80
2022/07/26 04:32:58;;;;;;;2.75;0.60;;;18.50;99.90;;;;;;5050742;28;20052;-80
2022/07/26 04:35:25;;;;;;;4.47;0.80;;;18.60;99.90;;;;;;5061856;28;20063;-80
2022/07/26 04:37:53;;;;;;;4.45;1.20;;;18.70;99.90;;;;;;5077728;28;20032;-80
2022/07/26 04:40:26;;;;;;;6.35;0.95;;;18.70;99.90;;;;;;5079123;28;20032;-80
2022/07/26 04:42:56;;;;;;;3.25;0.80;;;18.80;99.90;;;;;;5051892;28;20048;-80
2022/07/26 04:45:27;;;;;;;5.90;0.98;;;18.90;99.90;;;;;;5077965;28;20044;-80
2022/07/26 04:47:56;;;;;;;4.45;1.23;;;18.90;99.90;;;;;;5062884;28;20033;-80
2022/07/26 04:50:37;;;;;;;4.38;0.93;;;19.00;99.90;;;;;;5079170;28;20035;-80
2022/07/26 04:53:09;;;;;;;4.43;0.95;;;19.00;99.90;;;;;;5069163;28;20031;-80
2022/07/26 04:55:40;;;;;;;3.70;0.70;;;19.10;99.90;;;;;;5080947;28;20028;-80
2022/07/26 04:58:20;;;;;;;3.63;0.52;;;19.10;99.90;;;;;;5088235;28;20024;-80
2022/07/26 05:00:58;;;;;;;3.72;0.93;;;19.10;99.90;;;;;;5065372;28;20051;-80
2022/07/26 05:03:28;;;;;;;3.58;0.60;;;19.10;99.90;;;;;;5050870;28;20046;-80
2022/07/26 05:06:09;;;;;;;3.17;0.68;;;19.10;99.90;;;;;;5071783;28;20036;-80
2022/07/26 05:08:48;;;;;;;2.53;0.60;;;19.10;99.90;;;;;;5088710;28;20021;-80
2022/07/26 05:11:16;;;;;;;3.05;0.60;;;19.20;99.90;;;;;;5058693;28;20043;-81
2022/07/26 05:13:45;;;;;;;4.75;0.93;;;19.30;99.90;;;;;;5075864;28;20040;-79
2022/07/26 05:16:14;;;;;;;4.97;0.70;;;19.50;99.90;;;;;;5063829;28;20039;-81
2022/07/26 05:18:41;;;;;;;4.70;1.00;;;19.60;99.90;;;;;;5076970;28;20031;-81
2022/07/26 05:21:11;;;;;;;2.47;0.60;;;19.90;99.90;;;;;;5078697;28;20040;-83
2022/07/26 05:23:37;;;;;;;4.78;0.75;;;20.00;99.90;;;;;;5051647;28;20024;-81
2022/07/26 05:26:14;;;;;;;5.03;0.63;;;20.00;99.90;;;;;;5076873;28;20052;-84
2022/07/26 05:28:53;;;;;;;3.97;1.20;;;19.90;99.90;;;;;;5075221;28;20044;-83
2022/07/26 05:31:19;;;;;;;4.05;0.75;;;19.90;99.90;;;;;;5047256;28;20044;-85
2022/07/26 05:33:59;;;;;;;6.22;1.10;;;20.00;99.90;;;;;;5079406;28;20048;-79
2022/07/26 05:36:28;;;;;;;3.22;0.75;;;19.90;99.90;;;;;;5077869;28;20020;-80
2022/07/26 05:38:58;;;;;;;5.10;1.05;;;20.00;99.90;;;;;;5064299;28;20329;-80
2022/07/26 05:41:29;;;;;;;4.55;0.70;;;19.90;99.90;;;;;;5065066;28;20024;-79
2022/07/26 05:44:02;;;;;;;2.33;0.60;;;20.00;99.90;;;;;;5041705;28;20403;-79
2022/07/26 05:46:31;;;;;;;4.10;0.70;;;20.10;99.90;;;;;;5083800;28;20043;-78
2022/07/26 05:49:00;;;;;;;4.43;0.70;;;20.10;99.90;;;;;;5068227;28;20032;-79
2022/07/26 05:51:32;;;;;;;5.40;1.23;;;20.30;99.90;;;;;;5064410;28;20036;-79
2022/07/26 05:54:02;;;;;;;4.47;0.93;;;20.50;99.90;;;;;;5061190;28;20391;-81
2022/07/26 05:56:28;;;;;;;5.70;0.68;;;20.60;99.90;;;;;;5046815;28;20040;-82
2022/07/26 05:58:55;;;;;;;4.75;1.00;;;20.50;99.90;;;;;;5060353;28;20408;-80
2022/07/26 06:01:25;;;;;;;2.35;0.50;;;20.60;99.90;;;;;;5059989;28;20027;-81
2022/07/26 06:03:53;;;;;;;6.28;0.95;;;20.90;99.90;;;;;;5057625;28;20036;-81
2022/07/26 06:06:21;;;;;;;5.93;0.80;;;21.00;99.90;;;;;;5076391;28;20020;-81
2022/07/26 06:08:50;;;;;;;2.35;0.50;;;21.10;99.90;;;;;;5074442;28;20027;-81
2022/07/26 06:11:17;;;;;;;2.33;0.50;;;21.10;99.90;;;;;;5076128;28;20052;-81
2022/07/26 06:13:43;;;;;;;3.40;0.40;;;21.10;99.90;;;;;;5077475;28;20036;-79
2022/07/26 06:16:14;;;;;;;3.05;0.50;;;21.10;99.90;;;;;;5073221;28;20028;-80
2022/07/26 06:18:40;;;;;;;4.70;0.50;;;21.10;99.90;;;;;;5065221;28;20040;-79
2022/07/26 06:21:07;;;;;;;4.03;0.60;;;21.10;99.90;;;;;;5046162;28;20036;-79
2022/07/26 06:23:39;;;;;;;3.92;0.50;;;21.10;99.90;;;;;;5029785;28;20028;-82
2022/07/26 06:26:05;;;;;;;5.38;0.80;;;21.10;99.90;;;;;;5069423;28;20033;-82
2022/07/26 06:28:32;;;;;;;3.33;0.60;;;21.20;99.90;;;;;;5062097;28;20510;-83
2022/07/26 06:31:05;;;;;;;2.22;0.40;;;21.20;99.90;;;;;;5029511;28;20047;-83
2022/07/26 06:33:32;;;;;;;3.33;0.68;;;21.20;99.90;;;;;;5064127;28;20023;-83
2022/07/26 06:35:59;;;;;;;3.25;0.50;;;21.30;99.90;;;;;;5041671;28;20043;-83
2022/07/26 06:38:25;;;;;;;2.90;0.60;;;21.20;99.90;;;;;;5076659;28;20116;-83
2022/07/26 06:40:52;;;;;;;1.95;0.47;;;21.30;99.90;;;;;;5058673;28;20024;-83
2022/07/26 06:43:21;;;;;;;1.92;0.57;;;21.20;99.90;;;;;;5065900;28;20037;-83
2022/07/26 06:45:48;;;;;;;2.03;0.40;;;21.20;99.90;;;;;;5041361;28;20485;-82
2022/07/26 06:48:15;;;;;;;2.90;0.50;;;21.10;99.90;;;;;;5065179;28;20024;-82
2022/07/26 06:50:42;;;;;;;2.10;0.47;;;21.10;99.90;;;;;;5074946;28;20032;-82
2022/07/26 06:53:08;;;;;;;3.65;0.50;;;21.00;99.90;;;;;;5060456;28;20380;-82
2022/07/26 06:55:36;;;;;;;2.65;0.80;;;21.00;99.90;;;;;;5012988;28;20102;-82
2022/07/26 06:58:03;;;;;;;3.65;0.50;;;21.00;99.90;;;;;;5048323;28;20491;-82
2022/07/26 07:00:29;;;;;;;4.22;0.50;;;20.90;99.90;;;;;;5062392;28;20123;-84
2022/07/26 07:03:04;;;;;;;3.58;0.50;;;20.80;99.90;;;;;;5051052;28;20037;-83
2022/07/26 07:05:31;;;;;;;2.95;0.60;;;20.70;99.90;;;;;;5033033;28;20040;-83
2022/07/26 07:07:57;;;;;;;4.40;0.75;;;20.60;99.90;;;;;;5062085;28;20032;-81
2022/07/26 07:10:27;;;;;;;3.30;0.77;;;20.50;99.90;;;;;;5064061;28;20039;-80
2022/07/26 07:12:53;;;;;;;4.82;0.93;;;20.30;99.90;;;;;;5081851;28;20031;-79
2022/07/26 07:15:20;;;;;;;2.10;0.50;;;19.80;99.90;;;;;;5077994;28;20032;-78
2022/07/26 07:17:50;;;;;;;3.53;0.47;;;19.40;99.90;;;;;;5080657;28;20055;-84
2022/07/26 07:20:18;;;;;;;5.65;0.60;;;18.90;99.90;;;;;;5050357;28;20036;-83
2022/07/26 07:22:45;;;;;;;1.35;0.40;;;18.50;99.90;;;;;;5076571;28;20133;-79
2022/07/26 07:25:15;;;;;;;1.77;0.38;;;18.30;99.90;;;;;;5060788;28;20075;-78
2022/07/26 07:27:49;;;;;;;2.60;0.50;;;18.10;99.90;;;;;;5048693;28;20032;-76
2022/07/26 07:30:15;;;;;;;2.17;0.40;;;17.90;99.90;;;;;;5075883;28;20368;-77
2022/07/26 07:32:45;;;;;;;3.83;0.40;;;17.90;99.90;;;;;;5082245;28;20032;-77
2022/07/26 07:35:14;;;;;;;1.52;0.35;;;17.90;99.90;;;;;;5074430;28;20016;-81
2022/07/26 07:37:52;;;;;;;3.13;0.40;;;18.00;99.90;;;;;;5075930;28;20032;-78
2022/07/26 07:47:41;;;;;;;1.45;0.45;;;18.20;99.90;;;;;;5104335;24;20052;-76
2022/07/26 07:53:21;;;;;;;2.00;0.45;;;18.40;99.90;;;;;;5078261;27;20428;-79
2022/07/26 07:56:10;;;;;;;1.27;0.50;;;18.40;99.90;;;;;;5059502;28;20024;-79
2022/07/26 08:01:49;;;;;;;2.45;0.50;;;18.20;99.90;;;;;;5051154;28;20040;-83
2022/07/26 08:04:16;;;;;;;1.30;0.40;;;18.20;99.90;;;;;;5075190;28;20039;-77
2022/07/26 08:06:43;;;;;;;2.50;0.38;;;18.00;99.90;;;;;;5079244;28;20035;-78
2022/07/26 08:09:09;;;;;;;1.23;0.30;;;17.90;99.90;;;;;;5080259;28;20027;-77
2022/07/26 08:11:35;;;;;;;1.75;0.50;;;17.80;99.90;;;;;;5063884;28;20044;-77
2022/07/26 08:14:02;;;;;;;1.60;0.40;;;17.90;99.90;;;;;;5046784;28;20107;-78
2022/07/26 08:16:29;;;;;;;1.40;0.40;;;17.80;99.90;;;;;;5077072;28;20017;-77
2022/07/26 08:18:55;;;;;;;1.60;0.40;;;17.80;99.90;;;;;;5078970;28;20390;-78
2022/07/26 08:21:22;;;;;;;1.45;0.28;;;17.70;99.90;;;;;;5078789;28;20016;-78
2022/07/26 08:23:49;;;;;;;1.55;0.30;;;17.70;99.90;;;;;;5076611;28;20020;-78
2022/07/26 08:26:16;;;;;;;0.90;0.30;;;17.70;99.90;;;;;;5059530;28;20032;-77
2022/07/26 08:28:42;;;;;;;2.83;0.50;;;17.80;99.90;;;;;;5078049;28;20390;-76
2022/07/26 08:31:09;;;;;;;1.50;0.40;;;17.90;99.90;;;;;;5077974;28;20040;-77
2022/07/26 08:33:35;;;;;;;2.50;1.20;;;18.00;99.90;;;;;;5078213;28;20367;-76
2022/07/26 08:36:02;;;;;;;3.33;1.55;;;18.00;99.90;;;;;;5077635;28;20375;-76
2022/07/26 08:38:30;;;;;;;2.42;1.17;;;18.10;99.90;;;;;;5092892;28;20025;-77
2022/07/26 08:40:57;;;;;;;1.25;0.60;;;18.20;99.90;;;;;;5080325;28;20351;-77
2022/07/26 08:43:26;;;;;;;1.35;0.40;;;18.20;99.90;;;;;;5077793;28;20645;-78
2022/07/26 08:46:02;;;;;;;2.60;0.38;;;18.30;99.90;;;;;;5060790;28;20032;-79
2022/07/26 08:48:29;;;;;;;2.45;0.30;;;18.30;99.90;;;;;;5079900;28;20459;-79
2022/07/26 08:50:57;;;;;;;2.05;0.30;;;18.40;99.90;;;;;;5061012;28;20039;-78
2022/07/26 08:53:26;;;;;;;1.50;0.30;;;18.50;99.90;;;;;;5075445;28;20048;-79
2022/07/26 08:55:56;;;;;;;1.63;0.43;;;18.60;99.90;;;;;;5061124;28;20039;-83
2022/07/26 09:02:01;;;;;;;1.17;0.30;;;18.90;99.90;;;;;;5016731;28;20037;-84
2022/07/26 09:05:08;;;;;;;1.10;0.20;;;18.70;99.90;;;;;;5019898;28;20025;-82
2022/07/26 09:07:53;;;;;;;1.50;0.30;;;18.60;99.90;;;;;;5061894;28;20037;-82
2022/07/26 09:10:45;;;;;;;1.40;0.38;;;18.60;99.90;;;;;;5061033;28;20501;-83
2022/07/26 09:13:17;;;;;;;2.58;0.50;;;18.70;99.90;;;;;;5046777;28;20036;-83
2022/07/26 09:16:27;;;;;;;1.23;0.20;;;19.00;99.90;;;;;;5061264;28;20024;-83
2022/07/26 09:19:21;;;;;;;1.20;0.30;;;19.10;99.90;;;;;;5063031;28;20375;-83
2022/07/26 09:21:59;;;;;;;1.70;0.52;;;19.20;99.90;;;;;;5046850;28;20051;-83
2022/07/26 09:24:44;;;;;;;1.65;0.40;;;19.30;99.90;;;;;;5029532;28;20040;-83
2022/07/26 09:27:27;;;;;;;2.35;0.30;;;19.30;99.90;;;;;;5047610;28;20048;-83
2022/07/26 09:30:05;;;;;;;1.83;0.30;;;19.40;99.90;;;;;;5050293;28;20037;-83
2022/07/26 09:32:35;;;;;;;2.70;0.28;;;19.70;99.90;;;;;;5063754;28;20041;-82
2022/07/26 09:35:44;;;;;;;1.65;0.35;;;19.80;99.90;;;;;;5042863;28;20044;-83
2022/07/26 09:38:16;;;;;;;1.88;0.30;;;19.90;99.90;;;;;;5047987;28;20025;-84
2022/07/26 09:40:42;;;;;;;0.95;0.20;;;19.70;99.90;;;;;;5063805;28;20041;-83
2022/07/26 09:43:18;;;;;;;3.67;0.30;;;19.60;99.90;;;;;;5031637;28;20125;-83
2022/07/26 09:45:45;;;;;;;1.83;0.30;;;19.50;99.90;;;;;;5043709;28;20047;-83
2022/07/26 09:48:26;;;;;;;2.45;0.30;;;19.50;99.90;;;;;;5063483;28;20050;-83
2022/07/26 09:51:38;;;;;;;1.98;0.30;;;19.50;99.90;;;;;;5028182;28;20032;-83
2022/07/26 09:54:40;;;;;;;2.15;0.13;;;19.50;99.90;;;;;;5062316;28;20494;-83
2022/07/26 09:57:07;;;;;;;2.60;0.35;;;19.50;99.90;;;;;;5060943;28;20024;-83
2022/07/26 09:59:36;;;;;;;2.13;0.30;;;19.70;99.90;;;;;;5063111;28;20028;-83
2022/07/26 10:02:04;;;;;;;3.00;0.40;;;19.80;99.90;;;;;;5046531;28;20039;-84
2022/07/26 10:04:33;;;;;;;1.30;0.30;;;19.90;99.90;;;;;;5030732;28;20177;-82
2022/07/26 10:07:01;;;;;;;0.75;0.20;;;19.90;99.90;;;;;;5044255;28;20028;-83
2022/07/26 10:10:13;;;;;;;3.20;0.30;;;20.10;99.90;;;;;;5055849;28;20375;-83
2022/07/26 10:12:45;;;;;;;1.92;0.40;;;20.20;99.90;;;;;;5043551;28;20395;-83
2022/07/26 10:15:34;;;;;;;1.92;0.30;;;20.50;99.90;;;;;;5057474;28;20027;-83
2022/07/26 10:18:02;;;;;;;3.55;0.40;;;20.70;99.90;;;;;;5061103;28;20382;-81
2022/07/26 10:20:49;;;;;;;1.75;0.30;;;20.90;99.90;;;;;;5045838;28;20384;-81
2022/07/26 10:23:37;;;;;;;2.25;0.55;;;21.00;99.90;;;;;;5060853;28;20498;-79
2022/07/26 10:26:10;;;;;;;2.40;0.40;;;20.90;99.90;;;;;;5058024;28;20025;-79
2022/07/26 10:28:37;;;;;;;2.15;0.40;;;20.80;99.90;;;;;;5042538;28;20036;-79
2022/07/26 10:31:19;;;;;;;2.95;0.45;;;20.30;99.90;;;;;;5060940;28;20373;-79
2022/07/26 10:33:49;;;;;;;1.10;0.30;;;19.70;99.90;;;;;;5060369;28;20036;-78
2022/07/26 10:36:41;;;;;;;1.08;0.20;;;19.10;99.90;;;;;;5059679;28;20364;-80
2022/07/26 10:39:15;;;;;;;1.60;0.20;;;18.70;99.90;;;;;;5040923;28;20040;-79
2022/07/26 10:41:58;;;;;;;1.70;0.25;;;18.60;99.90;;;;;;5060097;28;20028;-80
2022/07/26 10:44:30;;;;;;;3.10;0.22;;;18.50;99.90;;;;;;5042911;28;20036;-80
2022/07/26 10:47:06;;;;;;;1.23;0.20;;;18.50;99.90;;;;;;5059796;28;20020;-79
2022/07/26 10:49:49;;;;;;;1.48;0.30;;;18.50;99.90;;;;;;5060632;28;20028;-79
2022/07/26 10:52:36;;;;;;;2.83;0.60;;;18.60;99.90;;;;;;5042452;28;20044;-79
2022/07/26 10:55:05;;;;;;;1.67;0.30;;;18.70;99.90;;;;;;5058479;28;20028;-80
2022/07/26 10:57:43;;;;;;;2.88;0.80;;;19.00;99.90;;;;;;5044391;28;20024;-79
2022/07/26 11:00:24;;;;;;;2.08;0.63;;;19.30;99.90;;;;;;5042353;28;20047;-79
2022/07/26 11:02:56;;;;;;;3.22;1.00;;;19.70;99.90;;;;;;5026151;28;20486;-80
2022/07/26 11:05:33;;;;;;;2.92;1.23;;;20.00;99.90;;;;;;5025734;28;20051;-80
2022/07/26 11:08:35;;;;;;;3.63;0.77;;;20.10;99.90;;;;;;5062081;28;20032;-83
2022/07/26 11:11:05;;;;;;;2.15;0.50;;;20.20;99.90;;;;;;5045683;28;20040;-80
2022/07/26 11:14:18;;;;;;;2.40;0.40;;;20.70;99.90;;;;;;5044243;28;20048;-84
2022/07/26 11:17:27;;;;;;;1.25;0.32;;;21.30;99.90;;;;;;5062092;28;20037;-83
2022/07/26 11:28:03;;;;;;;3.20;0.30;;;21.60;99.90;;;;;;5045983;28;20364;-84
2022/07/26 11:31:06;;;;;;;2.08;0.40;;;21.50;99.90;;;;;;5025470;28;20056;-83
2022/07/26 11:34:12;;;;;;;2.53;0.40;;;21.50;99.90;;;;;;4990633;28;20513;-81
2022/07/26 11:40:53;;;;;;;3.13;0.40;;;21.80;99.90;;;;;;4967775;28;20046;-86
2022/07/26 11:44:27;;;;;;;3.28;0.40;;;21.90;99.90;;;;;;4963194;28;20077;-86
2022/07/26 11:47:25;;;;;;;1.42;0.32;;;22.00;99.90;;;;;;4895460;29;20316;-87
2022/07/26 11:50:32;;;;;;;3.30;0.50;;;21.90;99.90;;;;;;4939059;28;20053;-88
2022/07/26 11:53:41;;;;;;;1.73;0.43;;;21.60;99.90;;;;;;4880489;29;20140;-88
2022/07/26 11:56:51;;;;;;;2.75;0.40;;;21.10;99.90;;;;;;4778173;29;20033;-88
2022/07/26 11:59:18;;;;;;;1.25;0.30;;;20.70;99.90;;;;;;4848434;29;20040;-89
2022/07/26 12:01:48;;;;;;;6.18;0.70;;;20.50;99.90;;;;;;4905751;29;20479;-88
2022/07/26 12:04:19;;;;;;;2.75;0.35;;;20.50;99.90;;;;;;4975822;28;20613;-90
2022/07/26 12:06:47;;;;;;;3.58;0.50;;;21.30;99.90;;;;;;5007584;28;20021;-88
2022/07/26 12:09:50;;;;;;;3.22;0.57;;;22.20;99.90;;;;;;5006702;28;20041;-88
2022/07/26 12:12:26;;;;;;;4.57;0.50;;;23.30;99.90;;;;;;5008897;28;20079;-87
2022/07/26 12:14:59;;;;;;;2.05;0.40;;;23.70;99.90;;;;;;5014928;28;20045;-89
2022/07/26 12:17:31;;;;;;;2.80;0.50;;;23.80;99.90;;;;;;5034483;28;21725;-89
2022/07/26 12:20:17;;;;;;;2.70;0.40;;;23.80;99.90;;;;;;5003078;28;20034;-88
2022/07/26 12:22:56;;;;;;;2.10;0.52;;;23.80;99.90;;;;;;5018136;28;20036;-88
2022/07/26 12:25:27;;;;;;;3.53;0.73;;;23.90;99.90;;;;;;4999769;28;20269;-88
2022/07/26 12:27:59;;;;;;;2.42;0.30;;;23.80;99.90;;;;;;5034029;28;20056;-88
2022/07/26 12:30:33;;;;;;;3.28;0.50;;;23.80;99.90;;;;;;5013133;28;20037;-89
2022/07/26 12:33:01;;;;;;;1.65;0.30;;;23.80;99.90;;;;;;5003487;28;20044;-89
2022/07/26 12:35:34;;;;;;;2.72;0.40;;;23.70;99.90;;;;;;5012390;28;20091;-89
2022/07/26 12:38:02;;;;;;;1.13;0.45;;;23.50;99.90;;;;;;5035517;28;20045;-87
2022/07/26 12:40:38;;;;;;;1.88;0.35;;;23.40;99.90;;;;;;5038636;28;20044;-89
2022/07/26 12:43:11;;;;;;;1.55;0.40;;;23.30;99.90;;;;;;5046904;28;20032;-86
2022/07/26 12:45:37;;;;;;;1.52;0.30;;;23.40;99.90;;;;;;5059193;28;20029;-86
2022/07/26 12:48:11;;;;;;;2.45;0.40;;;23.30;99.90;;;;;;5066380;28;20367;-87
2022/07/26 12:50:38;;;;;;;2.35;0.30;;;23.40;99.90;;;;;;5063979;28;20025;-87
2022/07/26 12:53:06;;;;;;;2.15;0.35;;;23.50;99.90;;;;;;5061680;28;20053;-86
2022/07/26 12:55:34;;;;;;;2.30;0.30;;;23.40;99.90;;;;;;5044185;28;20028;-87
2022/07/26 12:58:06;;;;;;;2.45;0.38;;;23.40;99.90;;;;;;5048948;28;20059;-87
2022/07/26 13:04:44;;;;;;;3.35;0.43;;;23.40;99.90;;;;;;5047559;28;20044;-85
2022/07/26 13:08:10;;;;;;;2.78;0.45;;;23.70;99.90;;;;;;5047857;28;20033;-85
2022/07/26 13:10:52;;;;;;;1.47;0.40;;;24.60;99.90;;;;;;5026387;28;20056;-86
2022/07/26 13:13:37;;;;;;;2.28;0.40;;;24.80;99.90;;;;;;5064311;28;20286;-84
2022/07/26 13:20:10;;;;;;;2.80;0.50;;;24.50;99.70;;;;;;5061360;28;20504;-81
2022/07/26 13:29:52;;;;;;;3.10;1.48;;;25.40;98.10;;;;;;4962095;28;20421;-81
2022/07/26 13:36:19;;;;;;;3.65;1.27;;;25.90;96.80;;;;;;5036310;28;20111;-83
2022/07/26 13:39:31;;;;;;;3.50;0.80;;;26.30;95.90;;;;;;4979832;28;20038;-84
2022/07/26 13:42:10;;;;;;;4.10;0.60;;;25.60;96.20;;;;;;5044318;28;20522;-83
2022/07/26 13:44:52;;;;;;;;;;;24.90;96.50;;;;;;5041125;28;20035;-84
2022/07/26 13:48:41;;;;;;;2.85;0.47;;;24.20;96.60;;;;;;5064042;28;19916;-84
2022/07/26 13:52:08;;;;;;;;;;;;;;;;;;;;;
2022/07/26 13:58:38;;;;;;;3.70;0.52;;;22.90;97.40;;;;;;5007101;28;20041;-84
2022/07/26 14:01:06;;;;;;;4.45;0.50;;;22.90;97.30;;;;;;4981266;28;20456;-84
2022/07/26 14:03:39;;;;;;;2.75;0.80;;;22.80;97.40;;;;;;5023260;28;20052;-83
2022/07/26 14:06:06;;;;;;;2.80;0.50;;;22.80;97.60;;;;;;5023296;28;20029;-84
2022/07/26 14:08:33;;;;;;;5.57;0.68;;;23.10;97.80;;;;;;5035232;28;20084;-84
2022/07/26 14:10:59;;;;;;;4.32;0.50;;;24.50;96.80;;;;;;5004283;28;20022;-85
2022/07/26 14:13:26;;;;;;;2.33;0.50;;;26.10;95.20;;;;;;4964314;28;20037;-85
2022/07/26 14:15:55;;;;;;;3.30;0.60;;;27.10;93.30;;;;;;5020121;28;20373;-86
2022/07/26 14:18:22;;;;;;;5.18;0.98;;;27.40;91.80;;;;;;4982040;28;20056;-86
2022/07/26 14:20:48;;;;;;;4.43;0.63;;;28.00;91.30;;;;;;5006659;28;20053;-85
2022/07/26 14:23:15;;;;;;;5.45;0.80;;;29.10;87.80;;;;;;4993909;28;20026;-85
2022/07/26 14:25:44;;;;;;;6.65;0.90;;;30.00;85.20;;;;;;5007290;28;20476;-86
2022/07/26 14:28:20;;;;;;;4.65;0.70;;;30.20;80.70;;;;;;5005486;28;20049;-86
2022/07/26 14:31:14;;;;;;;5.38;0.65;;;29.20;78.70;;;;;;4994164;28;20372;-86